Richmond, Illinois
Current Conditions -  °F | °C
As of 10:15 AM on Wednesday 28 Jan 2015 (Local Time) from KBUU Reporting Station
Clear Clear  
Wind Chill: -9°   Ceiling: Unl
Heat Index: -3°   Visibility: 10mi
Dew Point: -8°   Wind: 14mph
Humidity: 69%   Direction: 170°S
Pressure: 30.22"   Gusts: 20mph
Location:  42.48°N, 88.31°W
Report Text: KBUU 281615Z AUTO 17012G17KT 10SM CLR M03/M07 A3022 RMK AO2 T10261075
Loading
Personal Weather Stations






























Interactive Weather Map New forecast layout! Learn more

10-Day Weather Forecast

Advertisements
Track Severe Weather on mobile